Time;durP1;ratioP1;P1;durP2;ratioP2;P2;SDS_P1;SDS_P2;PMS_P1;PMS_P2;Temp;Humidity;BMP_temperature;BMP_pressure;BME280_temperature;BME280_humidity;BME280_pressure;Samples;Min_cycle;Max_cycle;Signal;HPM_P1;HPM_P2
2022/02/13 00:01:05;;;;;;;17.23;11.88;;;-0.30;99.90;;;;;;4954606;29;20038;-82
2022/02/13 00:03:32;;;;;;;22.23;12.85;;;-0.30;99.90;;;;;;4956550;29;20046;-82
2022/02/13 00:05:58;;;;;;;16.55;12.00;;;-0.30;99.90;;;;;;4955451;29;20050;-81
2022/02/13 00:08:24;;;;;;;11.65;10.43;;;-0.40;99.90;;;;;;4955982;28;20050;-83
2022/02/13 00:10:50;;;;;;;15.88;10.77;;;-0.60;99.90;;;;;;4955248;29;20047;-82
2022/02/13 00:13:17;;;;;;;14.55;11.10;;;-0.80;99.90;;;;;;4986435;28;20043;-82
2022/02/13 00:15:45;;;;;;;14.80;11.85;;;-0.90;99.90;;;;;;4955665;29;20462;-82
2022/02/13 00:18:11;;;;;;;17.40;12.02;;;-0.90;99.90;;;;;;4969451;28;20396;-82
2022/02/13 00:20:37;;;;;;;17.67;11.90;;;-0.90;99.90;;;;;;4950791;28;20053;-82
2022/02/13 00:23:03;;;;;;;19.02;15.50;;;-0.80;99.90;;;;;;4975477;28;20050;-80
2022/02/13 00:25:30;;;;;;;13.23;11.85;;;-0.80;99.90;;;;;;4977736;28;20034;-82
2022/02/13 00:27:56;;;;;;;13.60;11.70;;;-0.80;99.90;;;;;;4981598;28;20038;-82
2022/02/13 00:30:22;;;;;;;18.52;12.75;;;-0.70;99.90;;;;;;4965198;28;20230;-82
2022/02/13 00:32:50;;;;;;;24.25;14.57;;;-0.50;99.90;;;;;;4978553;28;20035;-81
2022/02/13 00:35:16;;;;;;;21.42;12.43;;;-0.40;99.90;;;;;;4975158;28;20042;-82
2022/02/13 00:37:43;;;;;;;15.15;12.50;;;-0.40;99.90;;;;;;4975876;28;20031;-82
2022/02/13 00:40:11;;;;;;;18.83;13.48;;;-0.40;99.90;;;;;;4973092;28;20043;-82
2022/02/13 00:42:37;;;;;;;28.58;18.40;;;-0.40;99.90;;;;;;4975699;28;20042;-82
2022/02/13 00:45:04;;;;;;;18.13;14.70;;;-0.40;99.90;;;;;;4974827;28;20487;-81
2022/02/13 00:47:31;;;;;;;18.45;15.32;;;-0.30;99.90;;;;;;4989955;28;20046;-80
2022/02/13 00:49:57;;;;;;;21.17;15.25;;;-0.30;99.90;;;;;;4957932;28;20038;-81
2022/02/13 00:52:23;;;;;;;20.05;17.05;;;-0.30;99.90;;;;;;4974425;28;20053;-81
2022/02/13 00:54:49;;;;;;;20.48;17.40;;;-0.30;99.90;;;;;;4958018;28;20042;-81
2022/02/13 00:57:16;;;;;;;21.15;16.38;;;-0.30;99.90;;;;;;4957254;28;20046;-81
2022/02/13 00:59:42;;;;;;;24.38;15.95;;;-0.20;99.90;;;;;;4975843;28;20034;-81
2022/02/13 01:02:10;;;;;;;17.88;13.88;;;-0.10;99.90;;;;;;4974643;28;20453;-81
2022/02/13 01:04:36;;;;;;;17.27;12.68;;;-0.20;99.90;;;;;;4974893;28;20035;-81
2022/02/13 01:07:02;;;;;;;12.73;11.43;;;-0.30;99.90;;;;;;4974782;28;20482;-79
2022/02/13 01:09:28;;;;;;;17.23;13.30;;;-0.30;99.90;;;;;;4974667;28;20033;-81
2022/02/13 01:11:55;;;;;;;15.10;13.30;;;-0.20;99.90;;;;;;4974958;28;20038;-81
2022/02/13 01:14:21;;;;;;;12.57;11.27;;;-0.30;99.90;;;;;;4956139;28;20047;-81
2022/02/13 01:16:47;;;;;;;13.23;11.90;;;-0.50;99.90;;;;;;4957260;28;20054;-81
2022/02/13 01:19:13;;;;;;;21.17;12.43;;;-0.60;99.90;;;;;;4973882;28;20050;-80
2022/02/13 01:21:40;;;;;;;14.48;11.57;;;-0.70;99.90;;;;;;4957566;28;20472;-81
2022/02/13 01:24:06;;;;;;;20.95;11.98;;;-0.90;99.90;;;;;;4974242;28;20467;-78
2022/02/13 01:26:33;;;;;;;12.15;10.82;;;-1.00;99.90;;;;;;4974688;28;20035;-81
2022/02/13 01:29:00;;;;;;;17.13;12.88;;;-1.00;99.90;;;;;;4974448;28;20046;-81
2022/02/13 01:31:27;;;;;;;24.20;12.98;;;-1.00;99.90;;;;;;4973435;28;20034;-81
2022/02/13 01:33:53;;;;;;;16.27;11.57;;;-1.00;99.90;;;;;;4957022;28;20046;-81
2022/02/13 01:36:20;;;;;;;17.90;12.32;;;-1.00;99.90;;;;;;4973916;28;20037;-82
2022/02/13 01:38:46;;;;;;;18.33;11.63;;;-1.10;99.90;;;;;;4957009;28;20046;-82
2022/02/13 01:41:13;;;;;;;14.73;12.60;;;-1.20;99.90;;;;;;4973664;28;20038;-81
2022/02/13 01:43:39;;;;;;;15.30;11.68;;;-1.30;99.90;;;;;;4974231;28;20045;-82
2022/02/13 01:46:05;;;;;;;14.85;11.70;;;-1.30;99.90;;;;;;4973731;28;20031;-79
2022/02/13 01:48:32;;;;;;;19.75;13.73;;;-1.30;99.90;;;;;;4956453;28;20046;-81
2022/02/13 01:50:58;;;;;;;15.82;12.35;;;-1.30;99.90;;;;;;4973965;28;20043;-81
2022/02/13 01:53:25;;;;;;;18.05;12.90;;;-1.40;99.90;;;;;;4973352;28;20049;-81
2022/02/13 01:55:51;;;;;;;16.10;11.88;;;-1.40;99.90;;;;;;4973971;28;20030;-81
2022/02/13 01:58:17;;;;;;;21.10;12.60;;;-1.40;99.90;;;;;;4973474;28;20038;-81
2022/02/13 02:00:44;;;;;;;16.40;12.68;;;-1.50;99.90;;;;;;4974424;28;20031;-81
2022/02/13 02:03:10;;;;;;;15.93;12.13;;;-1.50;99.90;;;;;;4972842;28;20050;-80
2022/02/13 02:05:37;;;;;;;20.70;12.85;;;-1.50;99.90;;;;;;4974003;28;20041;-81
2022/02/13 02:08:03;;;;;;;20.23;14.40;;;-1.60;99.90;;;;;;4974155;28;20035;-81
2022/02/13 02:10:30;;;;;;;17.98;15.70;;;-1.50;99.90;;;;;;4973318;28;20228;-81
2022/02/13 02:12:56;;;;;;;20.58;16.50;;;-1.60;99.90;;;;;;4973935;28;20075;-81
2022/02/13 02:15:22;;;;;;;17.35;14.48;;;-1.60;99.90;;;;;;4972927;28;20030;-81
2022/02/13 02:17:48;;;;;;;15.00;13.15;;;-1.50;99.90;;;;;;4973278;28;20054;-82
2022/02/13 02:20:15;;;;;;;24.70;15.13;;;-1.50;99.90;;;;;;4955402;28;20480;-80
2022/02/13 02:23:07;;;;;;;19.23;15.32;;;-1.20;99.90;;;;;;4973999;28;20047;-81
2022/02/13 02:25:33;;;;;;;19.67;15.30;;;-1.00;99.90;;;;;;4969383;28;20476;-81
2022/02/13 02:28:00;;;;;;;20.38;16.65;;;-1.00;99.90;;;;;;4973617;28;20038;-81
2022/02/13 02:30:26;;;;;;;22.65;16.77;;;-0.80;99.90;;;;;;4972418;28;20034;-81
2022/02/13 02:32:52;;;;;;;24.40;15.45;;;-0.60;99.90;;;;;;4973510;28;20047;-81
2022/02/13 02:35:18;;;;;;;17.80;15.93;;;-0.50;99.90;;;;;;4972381;28;20041;-81
2022/02/13 02:37:45;;;;;;;20.48;15.35;;;-0.40;99.90;;;;;;4973689;28;20035;-80
2022/02/13 02:40:12;;;;;;;18.33;13.43;;;-0.30;99.90;;;;;;4973166;28;20380;-78
2022/02/13 02:42:38;;;;;;;20.05;13.38;;;-0.30;99.90;;;;;;4972984;28;20035;-80
2022/02/13 02:45:04;;;;;;;14.23;12.07;;;-0.50;99.90;;;;;;4973043;28;20035;-80
2022/02/13 02:47:31;;;;;;;15.48;12.40;;;-0.70;99.90;;;;;;4972767;28;20112;-80
2022/02/13 02:49:57;;;;;;;13.90;12.55;;;-0.80;99.90;;;;;;4974048;28;20031;-81
2022/02/13 02:52:23;;;;;;;13.38;11.45;;;-0.90;99.90;;;;;;4972504;28;20045;-80
2022/02/13 02:54:49;;;;;;;16.15;13.07;;;-1.00;99.90;;;;;;4956077;28;20039;-81
2022/02/13 02:57:15;;;;;;;17.10;13.30;;;-1.20;99.90;;;;;;4972645;28;20039;-80
2022/02/13 02:59:42;;;;;;;13.68;11.32;;;-1.40;99.90;;;;;;4973383;28;20031;-80
2022/02/13 03:02:08;;;;;;;14.52;12.23;;;-1.50;99.90;;;;;;4973414;28;20499;-81
2022/02/13 03:04:34;;;;;;;18.33;12.73;;;-1.60;99.90;;;;;;4972374;28;20046;-81
2022/02/13 03:07:00;;;;;;;19.75;14.13;;;-1.60;99.90;;;;;;4973486;28;20039;-80
2022/02/13 03:09:26;;;;;;;13.73;12.30;;;-1.70;99.90;;;;;;4972772;28;20035;-80
2022/02/13 03:11:52;;;;;;;15.20;12.98;;;-1.70;99.90;;;;;;4972998;28;20052;-80
2022/02/13 03:14:19;;;;;;;20.27;13.40;;;-1.80;99.90;;;;;;4954505;28;20046;-80
2022/02/13 03:16:45;;;;;;;12.88;11.23;;;-1.80;99.90;;;;;;4955858;28;20042;-81
2022/02/13 03:19:12;;;;;;;18.27;13.25;;;-1.90;99.90;;;;;;4972800;28;20046;-77
2022/02/13 03:21:38;;;;;;;19.48;13.63;;;-1.90;99.90;;;;;;4972975;28;20046;-80
2022/02/13 03:24:07;;;;;;;18.65;12.90;;;-1.80;99.90;;;;;;4955707;28;20043;-81
2022/02/13 03:26:34;;;;;;;17.88;13.68;;;-1.80;99.90;;;;;;4972488;28;20211;-80
2022/02/13 03:29:00;;;;;;;19.15;13.90;;;-1.80;99.90;;;;;;4958343;28;20034;-80
2022/02/13 03:31:27;;;;;;;16.75;13.70;;;-1.70;99.90;;;;;;4975304;28;20042;-80
2022/02/13 03:33:53;;;;;;;17.00;15.00;;;-1.70;99.90;;;;;;4986117;28;20070;-80
2022/02/13 03:36:19;;;;;;;19.08;14.45;;;-1.70;99.90;;;;;;4986242;28;20035;-79
2022/02/13 03:38:46;;;;;;;20.52;13.43;;;-1.60;99.90;;;;;;4980900;28;20039;-79
2022/02/13 03:41:12;;;;;;;35.30;26.63;;;-1.60;99.90;;;;;;4984275;28;20456;-78
2022/02/13 03:43:38;;;;;;;57.03;38.22;;;-1.50;99.90;;;;;;4983042;28;20042;-80
2022/02/13 03:46:04;;;;;;;29.75;22.65;;;-1.50;99.90;;;;;;4955992;28;20045;-80
2022/02/13 03:48:30;;;;;;;64.68;43.33;;;-1.50;99.90;;;;;;4972176;28;20031;-80
2022/02/13 03:50:57;;;;;;;142.40;101.93;;;-1.60;99.90;;;;;;4972499;28;20030;-80
2022/02/13 03:53:23;;;;;;;164.32;111.55;;;-1.60;99.90;;;;;;4971701;28;20049;-79
2022/02/13 03:55:49;;;;;;;133.48;80.90;;;-1.60;99.90;;;;;;4973728;28;20038;-80
2022/02/13 03:58:15;;;;;;;76.03;51.20;;;-1.60;99.90;;;;;;4975510;28;20039;-77
2022/02/13 04:00:42;;;;;;;55.47;38.65;;;-1.50;99.90;;;;;;4979032;28;20134;-79
2022/02/13 04:03:08;;;;;;;187.23;126.55;;;-1.40;99.90;;;;;;4987202;28;20039;-79
2022/02/13 04:05:34;;;;;;;202.52;138.93;;;-1.50;99.90;;;;;;4985070;28;20459;-79
2022/02/13 04:08:01;;;;;;;64.82;42.53;;;-1.50;99.90;;;;;;4981768;28;20054;-79
2022/02/13 04:10:27;;;;;;;101.65;72.82;;;-1.40;99.90;;;;;;4985016;28;20034;-79
2022/02/13 04:12:53;;;;;;;26.45;18.00;;;-1.30;99.90;;;;;;4977560;28;20053;-79
2022/02/13 04:15:19;;;;;;;14.85;13.25;;;-1.10;99.90;;;;;;4975966;28;20023;-78
2022/02/13 04:17:46;;;;;;;167.13;125.80;;;-0.90;99.90;;;;;;4975879;28;20055;-78
2022/02/13 04:20:12;;;;;;;27.13;19.40;;;-0.80;99.90;;;;;;4958901;28;20042;-79
2022/02/13 04:22:39;;;;;;;16.90;13.85;;;-0.90;99.90;;;;;;4957607;28;20043;-79
2022/02/13 04:25:05;;;;;;;15.07;11.57;;;-0.90;99.90;;;;;;4980746;28;20034;-79
2022/02/13 04:27:31;;;;;;;15.63;11.88;;;-0.90;99.90;;;;;;4974562;28;20042;-79
2022/02/13 04:29:57;;;;;;;21.33;13.13;;;-0.80;99.90;;;;;;4975296;28;20479;-79
2022/02/13 04:32:24;;;;;;;18.27;12.15;;;-0.70;99.90;;;;;;4974308;28;20388;-78
2022/02/13 04:34:50;;;;;;;14.38;10.35;;;-0.80;99.90;;;;;;4957882;28;20043;-79
2022/02/13 04:37:16;;;;;;;12.30;9.70;;;-1.10;99.90;;;;;;4974747;28;20037;-78
2022/02/13 04:39:43;;;;;;;13.02;10.40;;;-1.30;99.90;;;;;;4957415;28;20043;-79
2022/02/13 04:42:11;;;;;;;14.38;11.20;;;-1.50;99.90;;;;;;4974950;28;20039;-79
2022/02/13 04:44:37;;;;;;;13.55;10.43;;;-1.70;99.90;;;;;;4974132;28;20062;-78
2022/02/13 04:47:03;;;;;;;15.68;11.70;;;-1.70;99.90;;;;;;4957819;28;20042;-78
2022/02/13 04:49:30;;;;;;;29.35;22.10;;;-1.80;99.90;;;;;;4974300;28;20476;-79
2022/02/13 04:51:56;;;;;;;31.40;19.67;;;-1.90;99.90;;;;;;4974687;28;20043;-79
2022/02/13 04:54:22;;;;;;;21.73;14.77;;;-2.00;99.90;;;;;;4956714;28;20039;-78
2022/02/13 04:56:49;;;;;;;99.13;61.35;;;-1.70;99.90;;;;;;4974574;28;20034;-78
2022/02/13 04:59:15;;;;;;;21.85;17.92;;;-1.60;99.90;;;;;;4989459;28;20053;-79
2022/02/13 05:01:41;;;;;;;29.80;24.45;;;-1.40;99.90;;;;;;4974040;28;20041;-79
2022/02/13 05:04:08;;;;;;;21.17;14.60;;;-1.30;99.90;;;;;;4975011;28;20057;-79
2022/02/13 05:06:35;;;;;;;28.80;24.63;;;-1.20;99.90;;;;;;4955929;28;20042;-78
2022/02/13 05:09:01;;;;;;;33.30;28.63;;;-1.00;99.90;;;;;;4956906;28;20042;-79
2022/02/13 05:11:28;;;;;;;28.58;21.20;;;-1.00;99.90;;;;;;4973382;28;20050;-78
2022/02/13 05:13:54;;;;;;;58.05;51.15;;;-1.00;99.90;;;;;;4974316;28;20039;-79
2022/02/13 05:16:20;;;;;;;25.48;19.90;;;-0.90;99.90;;;;;;4973813;28;20034;-79
2022/02/13 05:18:47;;;;;;;15.70;13.98;;;-0.80;99.90;;;;;;4974634;28;20050;-79
2022/02/13 05:21:13;;;;;;;38.58;30.98;;;-0.80;99.90;;;;;;4974644;28;20034;-79
2022/02/13 05:23:39;;;;;;;19.88;17.80;;;-0.70;99.90;;;;;;4956466;28;20098;-79
2022/02/13 05:26:05;;;;;;;16.90;12.10;;;-0.80;99.90;;;;;;4974384;28;20038;-79
2022/02/13 05:28:31;;;;;;;16.08;14.43;;;-0.90;99.90;;;;;;4956100;28;20058;-78
2022/02/13 05:30:58;;;;;;;17.08;13.20;;;-0.70;99.90;;;;;;4974307;28;20042;-78
2022/02/13 05:33:24;;;;;;;15.95;13.00;;;-0.60;99.90;;;;;;4973514;28;20038;-78
2022/02/13 05:35:50;;;;;;;16.40;12.95;;;-0.50;99.90;;;;;;4973607;28;20031;-79
2022/02/13 05:38:16;;;;;;;18.92;9.93;;;-0.40;99.90;;;;;;4973922;28;20034;-79
2022/02/13 05:40:42;;;;;;;16.02;11.00;;;-0.30;99.90;;;;;;4973219;28;20035;-79
2022/02/13 05:43:10;;;;;;;13.05;10.75;;;-0.40;99.90;;;;;;4974047;28;20039;-79
2022/02/13 05:45:36;;;;;;;21.08;10.27;;;-0.40;99.90;;;;;;4972947;28;20037;-79
2022/02/13 05:48:02;;;;;;;12.32;10.85;;;-0.20;99.90;;;;;;4973929;28;20054;-79
2022/02/13 05:50:28;;;;;;;15.07;9.75;;;-0.20;99.90;;;;;;4972929;28;20034;-79
2022/02/13 05:52:54;;;;;;;12.57;10.20;;;-0.30;99.90;;;;;;4973607;28;20514;-79
2022/02/13 05:55:21;;;;;;;11.63;9.88;;;-0.20;99.90;;;;;;4973206;28;20404;-77
2022/02/13 05:57:47;;;;;;;13.07;10.13;;;-0.30;99.90;;;;;;4973300;28;20038;-79
2022/02/13 06:00:14;;;;;;;11.85;9.20;;;-0.40;99.90;;;;;;4962576;28;20045;-79
2022/02/13 06:02:41;;;;;;;15.30;9.88;;;-0.40;99.90;;;;;;4961643;28;20506;-78
2022/02/13 06:05:09;;;;;;;13.52;10.73;;;-0.50;99.90;;;;;;4982743;28;20042;-79
2022/02/13 06:07:40;;;;;;;12.85;11.02;;;-0.50;99.90;;;;;;4960088;28;20035;-79
2022/02/13 06:10:08;;;;;;;26.02;10.82;;;-0.40;99.90;;;;;;4973925;28;20051;-80
2022/02/13 06:12:34;;;;;;;11.55;10.38;;;-0.50;99.90;;;;;;4955585;28;20042;-79
2022/02/13 06:15:01;;;;;;;14.40;10.30;;;-0.50;99.90;;;;;;4973055;28;20047;-79
2022/02/13 06:17:27;;;;;;;17.83;11.15;;;-0.60;99.90;;;;;;4986769;28;20051;-79
2022/02/13 06:19:54;;;;;;;12.10;9.75;;;-0.60;99.90;;;;;;4987125;28;20062;-79
2022/02/13 06:22:20;;;;;;;21.25;11.80;;;-0.60;99.90;;;;;;4973522;28;20042;-79
2022/02/13 06:24:47;;;;;;;21.73;10.38;;;-0.70;99.90;;;;;;4972860;28;20499;-79
2022/02/13 06:27:13;;;;;;;14.90;11.30;;;-0.80;99.90;;;;;;4973195;28;20027;-81
2022/02/13 06:29:40;;;;;;;13.43;11.07;;;-0.90;99.90;;;;;;4972623;28;20042;-80
2022/02/13 06:32:06;;;;;;;11.80;10.57;;;-1.00;99.90;;;;;;4973059;28;20047;-81
2022/02/13 06:34:33;;;;;;;14.38;10.70;;;-1.00;99.90;;;;;;4971993;28;20049;-78
2022/02/13 06:36:59;;;;;;;12.32;11.10;;;-0.90;99.90;;;;;;4973092;28;20030;-81
2022/02/13 06:39:25;;;;;;;15.38;11.73;;;-0.80;99.90;;;;;;4972769;28;20472;-77
2022/02/13 06:41:51;;;;;;;14.38;10.93;;;-0.70;99.90;;;;;;4972463;28;20495;-81
2022/02/13 06:44:17;;;;;;;12.52;10.43;;;-0.60;99.90;;;;;;4955626;28;20035;-81
2022/02/13 06:46:44;;;;;;;19.27;12.10;;;-0.50;99.90;;;;;;4972414;28;20030;-80
2022/02/13 06:49:10;;;;;;;11.85;10.73;;;-0.40;99.90;;;;;;4972843;28;20042;-81
2022/02/13 06:51:36;;;;;;;13.10;11.68;;;-0.40;99.90;;;;;;4972631;28;20065;-80
2022/02/13 06:54:02;;;;;;;14.93;11.20;;;-0.60;99.90;;;;;;4972977;28;20099;-81
2022/02/13 06:56:28;;;;;;;12.18;10.68;;;-0.60;99.90;;;;;;4954874;28;20400;-80
2022/02/13 06:58:55;;;;;;;14.68;12.07;;;-0.70;99.90;;;;;;4973482;28;20034;-80
2022/02/13 07:01:21;;;;;;;11.88;10.13;;;-0.70;99.90;;;;;;4972809;28;20035;-80
2022/02/13 07:03:47;;;;;;;11.60;10.45;;;-0.80;99.90;;;;;;4972158;28;20035;-80
2022/02/13 07:06:13;;;;;;;18.40;11.48;;;-0.90;99.90;;;;;;4955391;28;20395;-80
2022/02/13 07:08:39;;;;;;;12.70;10.40;;;-0.90;99.90;;;;;;4971838;28;20039;-80
2022/02/13 07:11:07;;;;;;;16.30;10.82;;;-0.80;99.90;;;;;;4955495;28;20043;-80
2022/02/13 07:13:34;;;;;;;15.05;11.77;;;-0.60;99.90;;;;;;4971822;28;20499;-80
2022/02/13 07:16:00;;;;;;;15.95;13.18;;;-0.30;99.90;;;;;;4955260;28;20465;-80
2022/02/13 07:18:26;;;;;;;12.63;10.43;;;-0.20;99.90;;;;;;4971887;28;20066;-79
2022/02/13 07:20:52;;;;;;;12.80;11.50;;;-0.10;99.90;;;;;;4972790;28;20034;-80
2022/02/13 07:23:19;;;;;;;11.15;10.05;;;0.00;99.90;;;;;;4972588;28;20042;-81
2022/02/13 07:25:46;;;;;;;14.07;12.27;;;0.20;99.90;;;;;;4971649;28;20042;-79
2022/02/13 07:30:57;;;;;;;13.05;10.63;;;0.30;99.90;;;;;;4975487;28;20046;-81
2022/02/13 07:33:24;;;;;;;11.50;10.00;;;0.30;99.90;;;;;;4976161;28;20046;-80
2022/02/13 07:35:50;;;;;;;15.93;10.32;;;0.50;99.90;;;;;;4975916;28;20026;-80
2022/02/13 07:38:16;;;;;;;10.13;8.75;;;0.70;99.90;;;;;;4976460;28;20031;-80
2022/02/13 07:40:42;;;;;;;15.30;9.30;;;0.90;99.90;;;;;;4974678;28;20042;-80
2022/02/13 07:43:09;;;;;;;12.32;10.93;;;1.40;99.90;;;;;;4976138;28;20039;-79
2022/02/13 07:45:35;;;;;;;11.40;9.77;;;1.90;98.20;;;;;;4975512;28;20360;-80
2022/02/13 07:48:02;;;;;;;9.88;8.65;;;2.70;95.60;;;;;;4958295;28;20069;-78
2022/02/13 07:50:28;;;;;;;11.32;10.10;;;3.10;92.60;;;;;;4975637;28;20034;-77
2022/02/13 07:52:54;;;;;;;11.15;7.75;;;3.60;91.40;;;;;;4975656;28;20038;-85
2022/02/13 07:55:20;;;;;;;8.75;7.85;;;4.10;87.60;;;;;;4958446;28;20047;-81
2022/02/13 07:57:46;;;;;;;9.93;7.45;;;4.40;84.70;;;;;;4975396;28;20034;-81
2022/02/13 08:00:13;;;;;;;8.32;7.45;;;4.60;82.20;;;;;;4975894;28;20366;-81
2022/02/13 08:02:40;;;;;;;14.50;7.65;;;4.50;82.30;;;;;;4975740;28;20027;-81
2022/02/13 08:05:07;;;;;;;8.02;7.07;;;4.70;81.30;;;;;;4975253;28;20031;-81
2022/02/13 08:07:33;;;;;;;11.07;8.05;;;4.80;80.10;;;;;;4974745;28;20038;-80
2022/02/13 08:09:59;;;;;;;9.88;7.57;;;4.80;79.60;;;;;;4975123;28;20031;-81
2022/02/13 08:12:26;;;;;;;8.40;7.55;;;4.70;79.00;;;;;;4958004;28;20050;-81
2022/02/13 08:14:53;;;;;;;9.63;7.45;;;4.60;78.70;;;;;;4974297;28;20039;-81
2022/02/13 08:17:19;;;;;;;14.90;8.35;;;4.80;79.50;;;;;;4975293;28;20054;-81
2022/02/13 08:19:45;;;;;;;8.43;7.55;;;4.90;78.70;;;;;;4974625;28;20464;-81
2022/02/13 08:22:12;;;;;;;12.07;8.57;;;4.90;77.70;;;;;;4975370;28;20031;-81
2022/02/13 08:24:38;;;;;;;8.32;7.57;;;5.30;77.40;;;;;;4974590;28;20050;-82
2022/02/13 08:27:04;;;;;;;9.10;8.20;;;5.50;76.20;;;;;;4975799;28;20038;-81
2022/02/13 08:29:30;;;;;;;10.85;8.00;;;5.60;74.70;;;;;;4973176;28;20472;-79
2022/02/13 08:31:56;;;;;;;8.65;7.63;;;5.80;74.20;;;;;;4975134;28;20034;-81
2022/02/13 08:34:24;;;;;;;12.07;7.75;;;6.50;73.80;;;;;;4974909;28;20042;-81
2022/02/13 08:36:50;;;;;;;8.98;8.05;;;6.80;71.50;;;;;;4974244;28;20042;-81
2022/02/13 08:39:16;;;;;;;14.00;8.00;;;6.90;71.30;;;;;;4957648;28;20042;-82
2022/02/13 08:41:43;;;;;;;7.78;6.97;;;7.40;70.30;;;;;;4956258;28;20066;-79
2022/02/13 08:44:09;;;;;;;13.15;8.02;;;7.70;67.20;;;;;;4975081;28;20035;-81
2022/02/13 08:46:35;;;;;;;7.63;6.82;;;8.20;67.30;;;;;;4956925;28;20042;-79
2022/02/13 08:49:03;;;;;;;8.68;7.78;;;8.50;64.20;;;;;;4975038;28;20035;-81
2022/02/13 08:51:29;;;;;;;10.35;7.75;;;8.30;65.20;;;;;;4957888;28;20376;-82
2022/02/13 08:53:56;;;;;;;9.95;7.75;;;8.50;64.50;;;;;;4974172;28;20043;-85
2022/02/13 08:56:22;;;;;;;8.23;7.43;;;8.90;63.10;;;;;;4974905;28;20038;-81
2022/02/13 08:58:52;;;;;;;9.60;6.82;;;9.20;62.30;;;;;;4956630;28;20030;-81
2022/02/13 09:01:19;;;;;;;7.32;6.45;;;8.90;61.50;;;;;;4974709;28;20030;-81
2022/02/13 09:03:46;;;;;;;15.48;7.65;;;8.80;63.40;;;;;;4974363;28;20407;-82
2022/02/13 09:06:12;;;;;;;7.65;6.85;;;8.70;63.50;;;;;;4975282;28;20031;-81
2022/02/13 09:08:38;;;;;;;11.43;9.10;;;8.90;63.10;;;;;;4974256;28;20034;-80
2022/02/13 09:11:04;;;;;;;10.13;9.07;;;9.20;62.30;;;;;;4975243;28;20042;-81
2022/02/13 09:13:31;;;;;;;10.18;7.93;;;8.80;63.00;;;;;;4974224;28;20066;-78
2022/02/13 09:15:57;;;;;;;7.68;6.90;;;8.60;63.50;;;;;;4975321;28;20035;-82
2022/02/13 09:18:23;;;;;;;9.43;6.35;;;8.40;63.40;;;;;;4957450;28;20047;-83
2022/02/13 09:20:49;;;;;;;8.90;7.97;;;8.20;64.50;;;;;;4956840;28;20043;-81
2022/02/13 09:23:22;;;;;;;11.15;6.30;;;7.70;65.60;;;;;;4973912;28;20054;-81
2022/02/13 09:25:50;;;;;;;8.43;7.63;;;7.90;65.60;;;;;;4973969;28;20047;-83
2022/02/13 09:28:17;;;;;;;6.43;5.80;;;7.50;66.50;;;;;;4974587;28;20042;-82
2022/02/13 09:30:47;;;;;;;10.38;7.07;;;7.40;66.80;;;;;;4974265;28;20047;-80
2022/02/13 09:33:16;;;;;;;11.37;5.37;;;7.40;67.80;;;;;;4973917;28;20055;-81
2022/02/13 09:35:43;;;;;;;7.00;6.03;;;7.20;68.20;;;;;;4973969;28;20735;-80
2022/02/13 09:38:15;;;;;;;7.05;6.35;;;7.10;67.90;;;;;;4974505;28;20046;-80
2022/02/13 09:40:47;;;;;;;8.75;6.60;;;7.00;68.20;;;;;;4974244;28;20035;-81
2022/02/13 09:43:15;;;;;;;7.60;6.85;;;6.90;68.70;;;;;;4974226;28;20518;-80
2022/02/13 09:45:44;;;;;;;9.73;7.93;;;6.70;69.60;;;;;;4973491;28;20034;-81
2022/02/13 09:48:14;;;;;;;7.40;6.70;;;6.60;70.30;;;;;;4974339;28;20460;-80
2022/02/13 09:50:41;;;;;;;8.32;6.28;;;6.60;70.10;;;;;;4973553;28;20034;-80
2022/02/13 09:53:07;;;;;;;7.63;6.82;;;6.60;70.80;;;;;;4973941;28;20046;-79
2022/02/13 09:55:34;;;;;;;9.43;6.88;;;6.50;70.70;;;;;;4973524;28;20381;-78
2022/02/13 09:58:02;;;;;;;12.65;8.75;;;6.50;70.90;;;;;;4974237;28;20042;-80
2022/02/13 10:00:51;;;;;;;10.77;6.80;;;6.60;71.10;;;;;;4973853;28;20027;-80
2022/02/13 10:03:29;;;;;;;8.38;7.57;;;6.60;71.10;;;;;;4973733;28;20031;-80
2022/02/13 10:05:57;;;;;;;14.05;6.80;;;6.70;70.40;;;;;;4973136;28;20046;-81
2022/02/13 10:08:34;;;;;;;11.55;7.85;;;6.70;70.90;;;;;;4973573;28;20039;-80
2022/02/13 10:11:08;;;;;;;7.53;6.78;;;6.70;70.90;;;;;;4973749;28;20126;-80
2022/02/13 10:13:58;;;;;;;9.93;7.07;;;6.80;71.10;;;;;;4955890;28;20042;-78
2022/02/13 10:16:26;;;;;;;10.75;7.90;;;6.90;71.20;;;;;;4973617;28;20053;-81
2022/02/13 10:18:55;;;;;;;12.07;9.48;;;7.00;70.70;;;;;;4973123;28;20051;-81
2022/02/13 10:21:31;;;;;;;8.52;6.18;;;6.90;71.00;;;;;;4973357;28;20043;-80
2022/02/13 10:24:12;;;;;;;9.32;8.40;;;6.90;71.20;;;;;;4972929;28;20078;-80
2022/02/13 10:26:39;;;;;;;8.75;7.65;;;7.10;70.90;;;;;;4987733;28;20499;-79
2022/02/13 10:29:05;;;;;;;22.23;11.18;;;7.20;70.70;;;;;;4956099;28;20492;-81
2022/02/13 10:31:31;;;;;;;21.80;17.05;;;7.10;70.80;;;;;;4956241;28;20507;-81
2022/02/13 10:34:01;;;;;;;14.07;12.27;;;7.10;70.70;;;;;;4972983;28;20045;-82
2022/02/13 10:36:27;;;;;;;11.85;8.00;;;7.20;70.80;;;;;;4974097;28;20039;-81
2022/02/13 10:38:54;;;;;;;9.60;7.82;;;7.40;70.60;;;;;;4972984;28;20057;-83
2022/02/13 10:41:27;;;;;;;9.85;7.65;;;7.40;70.20;;;;;;4973513;28;20031;-81
2022/02/13 10:44:02;;;;;;;9.55;7.95;;;7.50;70.10;;;;;;4973379;28;20042;-82
2022/02/13 10:46:31;;;;;;;9.38;8.20;;;7.50;70.00;;;;;;4974838;28;20353;-83
2022/02/13 10:48:58;;;;;;;8.98;6.97;;;7.50;70.40;;;;;;4955649;28;20035;-82
2022/02/13 10:51:25;;;;;;;14.10;8.00;;;7.60;70.00;;;;;;4973577;28;20034;-82
2022/02/13 10:53:52;;;;;;;12.52;8.50;;;7.70;69.60;;;;;;4972682;28;20046;-85
2022/02/13 10:56:20;;;;;;;9.05;7.82;;;7.90;69.30;;;;;;4973593;28;20065;-82
2022/02/13 10:58:46;;;;;;;16.55;7.03;;;8.00;69.30;;;;;;4972650;28;20054;-84
2022/02/13 11:01:18;;;;;;;8.68;7.15;;;8.00;69.00;;;;;;4973529;28;20039;-82
2022/02/13 11:03:48;;;;;;;12.93;11.10;;;8.10;68.70;;;;;;4972838;28;20041;-87
2022/02/13 11:06:18;;;;;;;19.45;14.27;;;8.10;68.80;;;;;;4976908;28;20391;-79
2022/02/13 11:08:54;;;;;;;11.30;9.38;;;8.20;68.50;;;;;;4976675;28;20035;-84
2022/02/13 11:11:21;;;;;;;9.25;8.35;;;8.20;69.40;;;;;;4977301;28;20038;-85
2022/02/13 11:13:48;;;;;;;11.85;7.97;;;8.40;68.40;;;;;;4976645;28;20486;-83
2022/02/13 11:16:32;;;;;;;10.85;8.15;;;8.40;68.50;;;;;;4977345;28;20039;-83
2022/02/13 11:19:13;;;;;;;8.75;7.85;;;8.50;68.60;;;;;;4977056;28;20502;-85
2022/02/13 11:21:41;;;;;;;13.68;7.47;;;8.50;68.30;;;;;;4959066;28;20039;-80
2022/02/13 11:24:22;;;;;;;8.32;7.00;;;8.50;67.90;;;;;;4977093;28;20042;-82
2022/02/13 11:26:48;;;;;;;;;;;8.50;68.20;;;;;;4976668;28;20356;-85
2022/02/13 11:29:15;;;;;;;9.57;8.05;;;8.60;67.60;;;;;;4977773;28;19960;-84
2022/02/13 11:31:50;;;;;;;9.90;6.90;;;8.70;67.80;;;;;;4976535;28;20030;-83
2022/02/13 11:34:22;;;;;;;9.10;6.95;;;8.80;67.40;;;;;;4977175;28;20504;-84
2022/02/13 11:36:58;;;;;;;11.23;7.70;;;8.90;67.10;;;;;;4976336;28;20035;-82
2022/02/13 11:39:33;;;;;;;7.88;6.00;;;8.80;67.00;;;;;;4976639;28;20072;-83
2022/02/13 11:42:02;;;;;;;8.23;7.13;;;8.80;66.40;;;;;;4975976;28;20147;-82
2022/02/13 11:44:40;;;;;;;7.82;7.03;;;8.80;66.80;;;;;;4977410;28;20038;-81
2022/02/13 11:47:12;;;;;;;8.02;7.00;;;8.90;66.90;;;;;;4977643;28;20035;-81
2022/02/13 11:50:03;;;;;;;9.25;8.02;;;9.10;66.50;;;;;;4977213;28;20038;-81
2022/02/13 11:52:31;;;;;;;8.93;7.75;;;9.20;65.70;;;;;;4960489;28;20043;-80
2022/02/13 11:54:58;;;;;;;9.40;7.68;;;9.20;65.80;;;;;;4975785;28;20043;-84
2022/02/13 11:57:29;;;;;;;9.18;6.95;;;9.20;66.10;;;;;;4976516;28;20540;-84
2022/02/13 11:59:55;;;;;;;9.77;7.03;;;9.20;65.30;;;;;;4958477;28;20043;-81
2022/02/13 12:02:30;;;;;;;9.15;7.47;;;9.20;65.20;;;;;;4984218;28;20033;-81
2022/02/13 12:05:05;;;;;;;7.22;6.47;;;9.30;65.40;;;;;;4959718;28;20058;-82
2022/02/13 12:07:38;;;;;;;8.77;6.90;;;9.50;64.70;;;;;;4977523;28;20511;-82
2022/02/13 12:10:05;;;;;;;10.38;6.80;;;9.60;64.50;;;;;;4975973;28;20038;-80
2022/02/13 12:12:32;;;;;;;7.30;6.60;;;9.50;64.90;;;;;;4976423;28;20043;-82
2022/02/13 12:14:58;;;;;;;8.82;7.15;;;9.40;64.50;;;;;;4958501;28;20142;-82
2022/02/13 12:17:26;;;;;;;7.60;6.90;;;9.50;64.60;;;;;;4975890;28;20050;-85
2022/02/13 12:20:09;;;;;;;7.18;6.35;;;9.60;64.20;;;;;;4988176;28;20035;-79
2022/02/13 12:22:36;;;;;;;10.65;7.00;;;9.70;64.10;;;;;;4998498;28;20053;-82
2022/02/13 12:25:10;;;;;;;7.95;6.65;;;9.80;64.00;;;;;;4998051;28;20034;-80
2022/02/13 12:27:39;;;;;;;10.18;7.85;;;9.80;63.50;;;;;;4997105;28;20170;-79
2022/02/13 12:30:08;;;;;;;6.75;6.03;;;9.80;63.50;;;;;;4996993;28;20043;-80
2022/02/13 12:32:36;;;;;;;9.20;6.28;;;9.90;63.70;;;;;;4977167;28;20047;-81
2022/02/13 12:35:11;;;;;;;7.60;6.10;;;9.90;62.60;;;;;;4989437;28;20258;-82
2022/02/13 12:37:46;;;;;;;10.13;7.03;;;9.90;63.20;;;;;;4990234;28;20035;-82
2022/02/13 12:40:20;;;;;;;10.35;5.90;;;9.90;62.60;;;;;;4970066;28;20047;-84
2022/02/13 12:42:52;;;;;;;7.32;6.57;;;9.90;63.70;;;;;;4977582;28;20042;-81